Lord Nelson — GHJV — position and weather

sailwx.info

Track history (hours):
 
Tides and Currents Weather Stations Pressure Air Temp Water Temp Dewpoint Dewpoint Depression Visibility Wind Speed Wind Dir Waves Ship Positions

Lord Nelson (United Kingdom)

Ship's website: http://www.jst.org.uk/

Last reported at 2015-Mar-29 21:31 UTC. Time now 2015-Mar-29 22:27 UTC.
Position N 38°32' W 028°38'.

Length 54.7 m; beam 9 m; draft 4.1 m.

Type: Sailing vessel. MMSI: 232003690.

Date/timePositionNaut miles runAvg speedWind from/ knotsBaromVisibWave heightAir tempDewpointWater temp
2015-Mar-29 21:31N 38°32' W 028°38'0 0.0
2015-Mar-29 20:28N 38°32' W 028°38'0 0.0
2015-Mar-29 19:28N 38°32' W 028°38'0 0.0
2015-Mar-29 18:31N 38°32' W 028°38'0 0.0
2015-Mar-29 17:31N 38°32' W 028°38'0 0.0
2015-Mar-29 16:28N 38°32' W 028°38'0 0.0
2015-Mar-29 15:31N 38°32' W 028°38'0 0.0
2015-Mar-29 14:28N 38°32' W 028°38'0 0.0
2015-Mar-29 13:28N 38°32' W 028°38'0 0.0
2015-Mar-29 12:31N 38°32' W 028°38'0 0.0
2015-Mar-29 11:31N 38°32' W 028°38'0 0.0
2015-Mar-29 10:34N 38°32' W 028°38'0 0.0
2015-Mar-29 09:33N 38°32' W 028°38'0 0.0
2015-Mar-29 08:33N 38°32' W 028°38'0 0.0
2015-Mar-29 07:33N 38°32' W 028°38'0 0.0
2015-Mar-29 06:33N 38°32' W 028°38'0 0.0
2015-Mar-29 05:33N 38°32' W 028°38'0 0.0
2015-Mar-29 04:33N 38°32' W 028°38'0 0.0
2015-Mar-29 03:30N 38°32' W 028°38'0 0.0
2015-Mar-29 02:33N 38°32' W 028°38'0 0.0
2015-Mar-29 01:33N 38°32' W 028°38'0 0.0
2015-Mar-29 00:33N 38°32' W 028°38'0 0.0
2015-Mar-28 23:33N 38°32' W 028°38'0 0.0
2015-Mar-28 22:33N 38°32' W 028°38'0 0.0
2015-Mar-28 21:33N 38°32' W 028°38'0 0.0
2015-Mar-28 20:33N 38°32' W 028°38'0 0.0
2015-Mar-28 19:30N 38°32' W 028°38'0 0.0
2015-Mar-28 18:30N 38°32' W 028°38'0 0.0
2015-Mar-28 17:33N 38°32' W 028°38'0 0.0
2015-Mar-28 16:33N 38°32' W 028°38'0 0.0
2015-Mar-28 15:27N 38°32' W 028°38'0 0.0
2015-Mar-28 14:33N 38°32' W 028°38'0 0.0
2015-Mar-28 13:33N 38°32' W 028°38'0 0.0
2015-Mar-28 12:33N 38°32' W 028°38'0 0.0
2015-Mar-28 11:33N 38°32' W 028°38'0 0.0
2015-Mar-28 10:33N 38°32' W 028°38'0 0.0
2015-Mar-28 09:33N 38°32' W 028°38'0 0.0
2015-Mar-28 08:33N 38°32' W 028°38'0 0.0
2015-Mar-28 07:33N 38°32' W 028°38'0 0.0
2015-Mar-28 06:33N 38°32' W 028°38'0 0.0
2015-Mar-28 05:30N 38°32' W 028°38'0 0.0
2015-Mar-28 04:33N 38°32' W 028°38'0 0.0
2015-Mar-28 03:33N 38°32' W 028°38'0 0.0
2015-Mar-28 02:33N 38°32' W 028°38'0 0.0
2015-Mar-28 01:33N 38°32' W 028°38'0 0.0
2015-Mar-28 00:33N 38°32' W 028°38'0 0.0
2015-Mar-27 23:33N 38°32' W 028°38'0 0.0
2015-Mar-27 22:32N 38°32' W 028°38'0 0.0
2015-Mar-27 21:32N 38°32' W 028°38'0 0.0
2015-Mar-27 20:33N 38°32' W 028°38'0 0.0
2015-Mar-27 19:32N 38°32' W 028°38'0 0.0
2015-Mar-27 18:33N 38°32' W 028°38'0 0.0
2015-Mar-27 17:32N 38°32' W 028°38'1 0.7
2015-Mar-27 16:34N 38°32' W 028°37'5 4.9
2015-Mar-27 15:33N 38°28' W 028°40'7 6.7
2015-Mar-27 14:33N 38°24' W 028°47'7 7.1
2015-Mar-27 13:33N 38°20' W 028°54'7 7.1
2015-Mar-27 12:34N 38°17' W 029°03'8 8.0
2015-Mar-27 11:33N 38°15' W 029°13'7 6.8
2015-Mar-27 10:33N 38°13' W 029°21'7 7.3
2015-Mar-27 09:33N 38°12' W 029°30'7 7.1
2015-Mar-27 08:33N 38°10' W 029°39'7 6.8
2015-Mar-27 07:33N 38°08' W 029°47'7 6.6
2015-Mar-27 06:34N 38°07' W 029°55'7 6.6
2015-Mar-27 05:33N 38°05' W 030°04'7 6.8
2015-Mar-27 04:33N 38°04' W 030°12'610.9
2015-Mar-27 04:00N 38°00' W 030°18'24 5.9 190 / 301021.2 5.4 4.017.514.916.9
2015-Mar-27 00:00N 38°00' W 030°48'280 7.2 190 / 281021.1 5.4 17.415.017.2
2015-Mar-25 09:00N 36°36' W 036°24'45 5.6 180 / 161024.810.8 0.518.415.018.6
2015-Mar-25 01:00N 36°24' W 037°18'20 5.1 200 / 151027.910.8 19.014.419.4
2015-Mar-24 21:00N 36°18' W 037°42'124 6.5 190 / 171027.410.8 1.019.514.419.8
2015-Mar-24 02:00N 35°36' W 040°06'170 5.5 170 / 181029.210.8 19.016.319.4
2015-Mar-22 19:00N 34°12' W 043°06'42 4.2 180 / 81025.310.8 20.216.619.2
2015-Mar-22 09:00N 33°48' W 043°48'174 5.4 160 / 121024.410.8 0.519.116.619.3
2015-Mar-21 01:00N 33°12' W 047°12'31 7.7 330 / 131024.210.8 19.412.520.9
2015-Mar-20 21:00N 32°54' W 047°42'   330 / 131021.9 5.4 0.519.412.320.5
Track history (hours):
 
Tides and Currents Weather Stations Pressure Air Temp Water Temp Dewpoint Dewpoint Depression Visibility Wind Speed Wind Dir Waves Ship Positions

Lord Nelson (United Kingdom)

Ship's website: http://www.jst.org.uk/

Last reported at 2015-Mar-29 21:31 UTC. Time now 2015-Mar-29 22:27 UTC.
Position N 38°32' W 028°38'.

Length 54.7 m; beam 9 m; draft 4.1 m.

Type: Sailing vessel. MMSI: 232003690.

Date/timePositionNaut miles runAvg speedWind from/ knotsBaromVisibWave heightAir tempDewpointWater temp
2015-Mar-29 21:31N 38°32' W 028°38'0 0.0
2015-Mar-29 20:28N 38°32' W 028°38'0 0.0
2015-Mar-29 19:28N 38°32' W 028°38'0 0.0
2015-Mar-29 18:31N 38°32' W 028°38'0 0.0
2015-Mar-29 17:31N 38°32' W 028°38'0 0.0
2015-Mar-29 16:28N 38°32' W 028°38'0 0.0
2015-Mar-29 15:31N 38°32' W 028°38'0 0.0
2015-Mar-29 14:28N 38°32' W 028°38'0 0.0
2015-Mar-29 13:28N 38°32' W 028°38'0 0.0
2015-Mar-29 12:31N 38°32' W 028°38'0 0.0
2015-Mar-29 11:31N 38°32' W 028°38'0 0.0
2015-Mar-29 10:34N 38°32' W 028°38'0 0.0
2015-Mar-29 09:33N 38°32' W 028°38'0 0.0
2015-Mar-29 08:33N 38°32' W 028°38'0 0.0
2015-Mar-29 07:33N 38°32' W 028°38'0 0.0
2015-Mar-29 06:33N 38°32' W 028°38'0 0.0
2015-Mar-29 05:33N 38°32' W 028°38'0 0.0
2015-Mar-29 04:33N 38°32' W 028°38'0 0.0
2015-Mar-29 03:30N 38°32' W 028°38'0 0.0
2015-Mar-29 02:33N 38°32' W 028°38'0 0.0
2015-Mar-29 01:33N 38°32' W 028°38'0 0.0
2015-Mar-29 00:33N 38°32' W 028°38'0 0.0
2015-Mar-28 23:33N 38°32' W 028°38'0 0.0
2015-Mar-28 22:33N 38°32' W 028°38'0 0.0
2015-Mar-28 21:33N 38°32' W 028°38'0 0.0
2015-Mar-28 20:33N 38°32' W 028°38'0 0.0
2015-Mar-28 19:30N 38°32' W 028°38'0 0.0
2015-Mar-28 18:30N 38°32' W 028°38'0 0.0
2015-Mar-28 17:33N 38°32' W 028°38'0 0.0
2015-Mar-28 16:33N 38°32' W 028°38'0 0.0
2015-Mar-28 15:27N 38°32' W 028°38'0 0.0
2015-Mar-28 14:33N 38°32' W 028°38'0 0.0
2015-Mar-28 13:33N 38°32' W 028°38'0 0.0
2015-Mar-28 12:33N 38°32' W 028°38'0 0.0
2015-Mar-28 11:33N 38°32' W 028°38'0 0.0
2015-Mar-28 10:33N 38°32' W 028°38'0 0.0
2015-Mar-28 09:33N 38°32' W 028°38'0 0.0
2015-Mar-28 08:33N 38°32' W 028°38'0 0.0
2015-Mar-28 07:33N 38°32' W 028°38'0 0.0
2015-Mar-28 06:33N 38°32' W 028°38'0 0.0
2015-Mar-28 05:30N 38°32' W 028°38'0 0.0
2015-Mar-28 04:33N 38°32' W 028°38'0 0.0
2015-Mar-28 03:33N 38°32' W 028°38'0 0.0
2015-Mar-28 02:33N 38°32' W 028°38'0 0.0
2015-Mar-28 01:33N 38°32' W 028°38'0 0.0
2015-Mar-28 00:33N 38°32' W 028°38'0 0.0
2015-Mar-27 23:33N 38°32' W 028°38'0 0.0
2015-Mar-27 22:32N 38°32' W 028°38'0 0.0
2015-Mar-27 21:32N 38°32' W 028°38'0 0.0
2015-Mar-27 20:33N 38°32' W 028°38'0 0.0
2015-Mar-27 19:32N 38°32' W 028°38'0 0.0
2015-Mar-27 18:33N 38°32' W 028°38'0 0.0
2015-Mar-27 17:32N 38°32' W 028°38'1 0.7
2015-Mar-27 16:34N 38°32' W 028°37'5 4.9
2015-Mar-27 15:33N 38°28' W 028°40'7 6.7
2015-Mar-27 14:33N 38°24' W 028°47'7 7.1
2015-Mar-27 13:33N 38°20' W 028°54'7 7.1
2015-Mar-27 12:34N 38°17' W 029°03'8 8.0
2015-Mar-27 11:33N 38°15' W 029°13'7 6.8
2015-Mar-27 10:33N 38°13' W 029°21'7 7.3
2015-Mar-27 09:33N 38°12' W 029°30'7 7.1
2015-Mar-27 08:33N 38°10' W 029°39'7 6.8
2015-Mar-27 07:33N 38°08' W 029°47'7 6.6
2015-Mar-27 06:34N 38°07' W 029°55'7 6.6
2015-Mar-27 05:33N 38°05' W 030°04'7 6.8
2015-Mar-27 04:33N 38°04' W 030°12'610.9
2015-Mar-27 04:00N 38°00' W 030°18'24 5.9 190 / 301021.2 5.4 4.017.514.916.9
2015-Mar-27 00:00N 38°00' W 030°48'280 7.2 190 / 281021.1 5.4 17.415.017.2
2015-Mar-25 09:00N 36°36' W 036°24'45 5.6 180 / 161024.810.8 0.518.415.018.6
2015-Mar-25 01:00N 36°24' W 037°18'20 5.1 200 / 151027.910.8 19.014.419.4
2015-Mar-24 21:00N 36°18' W 037°42'124 6.5 190 / 171027.410.8 1.019.514.419.8
2015-Mar-24 02:00N 35°36' W 040°06'170 5.5 170 / 181029.210.8 19.016.319.4
2015-Mar-22 19:00N 34°12' W 043°06'42 4.2 180 / 81025.310.8 20.216.619.2
2015-Mar-22 09:00N 33°48' W 043°48'174 5.4 160 / 121024.410.8 0.519.116.619.3
2015-Mar-21 01:00N 33°12' W 047°12'31 7.7 330 / 131024.210.8 19.412.520.9
2015-Mar-20 21:00N 32°54' W 047°42'   330 / 131021.9 5.4 0.519.412.320.5

Dump ship's entire track history